Chestnut Dale, North Carolina
Current Conditions -  °F | °C
As of 4:15 AM on Saturday 01 Nov 2014 (Local Time) from KTNB Reporting Station
Light Snow Light Snow  
Wind Chill: 23°   Ceiling: Unl
Heat Index: 31°   Visibility: 7mi
Dew Point: 30°   Wind: 9mph
Humidity: 95%   Direction: 300°WNW
Pressure: 29.74"   Gusts: 18mph
Location:  36.0227°N, 81.9499°W
Report Text: KTNB 010815Z AUTO 30008G16KT 7SM -SN SCT041 00/M01 A2974 RMK AO2 T10031010
Loading
Personal Weather Stations






























Interactive Weather Map
Tropical Storm Tracking
New forecast layout! Learn more

10-Day Weather Forecast

Advertisements
Track Severe Weather on mobile